sensor_id;sensor_type;location;lat;lon;timestamp;pressure;altitude;pressure_sealevel;temperature;humidity
56894;BME280;43392;50.078;13.704;2024-02-28T00:00:25;96891.94;;;5.28;90.16
56894;BME280;43392;50.078;13.704;2024-02-28T00:02:51;96891.59;;;5.24;90.33
56894;BME280;43392;50.078;13.704;2024-02-28T00:05:18;96903.53;;;5.22;90.24
56894;BME280;43392;50.078;13.704;2024-02-28T00:07:44;96899.50;;;5.19;90.62
56894;BME280;43392;50.078;13.704;2024-02-28T00:10:12;96904.88;;;5.24;90.86
56894;BME280;43392;50.078;13.704;2024-02-28T00:12:39;96900.13;;;5.26;90.84
56894;BME280;43392;50.078;13.704;2024-02-28T00:15:08;96900.22;;;5.31;90.49
56894;BME280;43392;50.078;13.704;2024-02-28T00:17:38;96900.22;;;5.31;90.57
56894;BME280;43392;50.078;13.704;2024-02-28T00:20:06;96904.72;;;5.31;90.34
56894;BME280;43392;50.078;13.704;2024-02-28T00:22:33;96905.78;;;5.30;90.17
56894;BME280;43392;50.078;13.704;2024-02-28T00:25:00;96903.34;;;5.28;90.10
56894;BME280;43392;50.078;13.704;2024-02-28T00:27:26;96905.69;;;5.25;90.52
56894;BME280;43392;50.078;13.704;2024-02-28T00:29:53;96891.59;;;5.24;90.42
56894;BME280;43392;50.078;13.704;2024-02-28T00:32:21;96900.59;;;5.23;90.55
56894;BME280;43392;50.078;13.704;2024-02-28T00:34:47;96903.53;;;5.22;90.49
56894;BME280;43392;50.078;13.704;2024-02-28T00:37:14;96904.25;;;5.17;90.66
56894;BME280;43392;50.078;13.704;2024-02-28T00:39:41;96900.47;;;5.13;90.60
56894;BME280;43392;50.078;13.704;2024-02-28T00:42:07;96893.19;;;5.09;90.74
56894;BME280;43392;50.078;13.704;2024-02-28T00:44:34;96897.47;;;5.10;90.74
56894;BME280;43392;50.078;13.704;2024-02-28T00:47:00;96895.06;;;5.08;90.65
56894;BME280;43392;50.078;13.704;2024-02-28T00:49:28;96904.91;;;5.08;90.62
56894;BME280;43392;50.078;13.704;2024-02-28T00:51:55;96900.13;;;5.10;90.58
56894;BME280;43392;50.078;13.704;2024-02-28T00:54:22;96896.66;;;5.09;90.35
56894;BME280;43392;50.078;13.704;2024-02-28T00:56:49;96900.88;;;5.05;90.09
56894;BME280;43392;50.078;13.704;2024-02-28T00:59:15;96900.13;;;5.10;90.22
56894;BME280;43392;50.078;13.704;2024-02-28T01:01:42;96905.44;;;5.10;90.00
56894;BME280;43392;50.078;13.704;2024-02-28T01:04:08;96907.06;;;5.11;89.94
56894;BME280;43392;50.078;13.704;2024-02-28T01:06:37;96907.56;;;5.08;89.53
56894;BME280;43392;50.078;13.704;2024-02-28T01:09:04;96906.41;;;5.04;89.55
56894;BME280;43392;50.078;13.704;2024-02-28T01:11:31;96904.00;;;5.02;89.42
56894;BME280;43392;50.078;13.704;2024-02-28T01:13:57;96899.50;;;5.03;89.27
56894;BME280;43392;50.078;13.704;2024-02-28T01:16:24;96902.72;;;5.05;89.43
56894;BME280;43392;50.078;13.704;2024-02-28T01:18:53;96906.09;;;5.00;89.51
56894;BME280;43392;50.078;13.704;2024-02-28T01:21:19;96903.91;;;4.97;89.42
56894;BME280;43392;50.078;13.704;2024-02-28T01:23:47;96903.09;;;4.97;89.43
56894;BME280;43392;50.078;13.704;2024-02-28T01:26:14;96910.38;;;5.01;89.43
56894;BME280;43392;50.078;13.704;2024-02-28T01:28:40;96903.53;;;5.05;89.14
56894;BME280;43392;50.078;13.704;2024-02-28T01:31:08;96903.19;;;5.02;88.96
56894;BME280;43392;50.078;13.704;2024-02-28T01:33:34;96908.19;;;4.98;88.85
56894;BME280;43392;50.078;13.704;2024-02-28T01:36:01;96904.97;;;4.96;89.06
56894;BME280;43392;50.078;13.704;2024-02-28T01:38:28;96901.72;;;4.94;89.05
56894;BME280;43392;50.078;13.704;2024-02-28T01:40:55;96909.22;;;4.97;89.29
56894;BME280;43392;50.078;13.704;2024-02-28T01:43:22;96900.78;;;5.00;89.13
56894;BME280;43392;50.078;13.704;2024-02-28T01:45:49;96904.00;;;5.02;88.66
56894;BME280;43392;50.078;13.704;2024-02-28T01:48:16;96908.75;;;5.00;88.78
56894;BME280;43392;50.078;13.704;2024-02-28T01:50:43;96900.22;;;4.98;88.83
56894;BME280;43392;50.078;13.704;2024-02-28T01:53:10;96908.09;;;4.93;88.97
56894;BME280;43392;50.078;13.704;2024-02-28T01:55:39;96897.66;;;4.87;88.84
56894;BME280;43392;50.078;13.704;2024-02-28T01:58:07;96905.63;;;4.87;89.03
56894;BME280;43392;50.078;13.704;2024-02-28T02:00:34;96905.03;;;4.85;89.22
56894;BME280;43392;50.078;13.704;2024-02-28T02:03:01;96903.53;;;4.89;88.93
56894;BME280;43392;50.078;13.704;2024-02-28T02:05:28;96896.59;;;4.88;88.74
56894;BME280;43392;50.078;13.704;2024-02-28T02:07:55;96894.50;;;4.90;88.69
56894;BME280;43392;50.078;13.704;2024-02-28T02:10:23;96907.56;;;4.91;88.63
56894;BME280;43392;50.078;13.704;2024-02-28T02:12:50;96906.50;;;4.92;88.62
56894;BME280;43392;50.078;13.704;2024-02-28T02:15:18;96902.47;;;4.90;88.64
56894;BME280;43392;50.078;13.704;2024-02-28T02:17:45;96906.25;;;4.94;88.73
56894;BME280;43392;50.078;13.704;2024-02-28T02:20:14;96906.25;;;4.94;88.51
56894;BME280;43392;50.078;13.704;2024-02-28T02:22:42;96905.44;;;4.93;88.73
56894;BME280;43392;50.078;13.704;2024-02-28T02:25:09;96901.72;;;4.94;88.67
56894;BME280;43392;50.078;13.704;2024-02-28T02:27:35;96908.91;;;4.94;88.51
56894;BME280;43392;50.078;13.704;2024-02-28T02:30:02;96906.00;;;4.95;88.59
56894;BME280;43392;50.078;13.704;2024-02-28T02:32:29;96907.78;;;4.90;88.77
56894;BME280;43392;50.078;13.704;2024-02-28T02:34:56;96915.81;;;4.95;88.82
56894;BME280;43392;50.078;13.704;2024-02-28T02:37:22;96908.66;;;4.95;88.91
56894;BME280;43392;50.078;13.704;2024-02-28T02:39:51;96902.53;;;4.95;88.69
56894;BME280;43392;50.078;13.704;2024-02-28T02:42:17;96904.97;;;4.96;88.70
56894;BME280;43392;50.078;13.704;2024-02-28T02:44:44;96916.38;;;4.97;88.74
56894;BME280;43392;50.078;13.704;2024-02-28T02:47:10;96912.94;;;4.96;89.09
56894;BME280;43392;50.078;13.704;2024-02-28T02:49:37;96914.53;;;4.97;88.51
56894;BME280;43392;50.078;13.704;2024-02-28T02:52:04;96908.19;;;4.98;88.63
56894;BME280;43392;50.078;13.704;2024-02-28T02:54:30;96912.69;;;4.98;88.43
56894;BME280;43392;50.078;13.704;2024-02-28T02:56:58;96914.53;;;4.97;88.30
56894;BME280;43392;50.078;13.704;2024-02-28T02:59:25;96916.38;;;4.97;88.20
56894;BME280;43392;50.078;13.704;2024-02-28T03:01:52;96917.94;;;4.93;88.40
56894;BME280;43392;50.078;13.704;2024-02-28T03:04:19;96917.13;;;4.92;88.63
56894;BME280;43392;50.078;13.704;2024-02-28T03:06:45;96911.72;;;4.87;88.64
56894;BME280;43392;50.078;13.704;2024-02-28T03:09:12;96916.31;;;4.92;88.48
56894;BME280;43392;50.078;13.704;2024-02-28T03:11:38;96920.75;;;4.86;88.64
56894;BME280;43392;50.078;13.704;2024-02-28T03:14:06;96925.25;;;4.86;88.98
56894;BME280;43392;50.078;13.704;2024-02-28T03:16:33;96934.25;;;4.85;88.97
56894;BME280;43392;50.078;13.704;2024-02-28T03:19:02;96934.03;;;4.86;88.93
56894;BME280;43392;50.078;13.704;2024-02-28T03:21:29;96937.50;;;4.87;89.06
56894;BME280;43392;50.078;13.704;2024-02-28T03:23:55;96950.19;;;4.85;89.09
56894;BME280;43392;50.078;13.704;2024-02-28T03:26:22;96950.69;;;4.82;88.92
56894;BME280;43392;50.078;13.704;2024-02-28T03:28:49;96959.44;;;4.82;89.21
56894;BME280;43392;50.078;13.704;2024-02-28T03:31:17;96969.03;;;4.83;89.04
56894;BME280;43392;50.078;13.704;2024-02-28T03:33:43;96965.34;;;4.84;89.07
56894;BME280;43392;50.078;13.704;2024-02-28T03:36:12;96972.81;;;4.87;88.79
56894;BME280;43392;50.078;13.704;2024-02-28T03:38:38;96970.66;;;4.84;88.77
56894;BME280;43392;50.078;13.704;2024-02-28T03:41:05;96978.03;;;4.82;88.74
56894;BME280;43392;50.078;13.704;2024-02-28T03:43:31;96979.66;;;4.83;88.79
56894;BME280;43392;50.078;13.704;2024-02-28T03:45:58;96978.03;;;4.82;88.43
56894;BME280;43392;50.078;13.704;2024-02-28T03:48:26;96982.56;;;4.82;88.50
56894;BME280;43392;50.078;13.704;2024-02-28T03:50:53;96982.78;;;4.80;88.38
56894;BME280;43392;50.078;13.704;2024-02-28T03:53:19;96985.69;;;4.79;88.50
56894;BME280;43392;50.078;13.704;2024-02-28T03:55:46;96990.19;;;4.78;88.53
56894;BME280;43392;50.078;13.704;2024-02-28T03:58:12;96997.03;;;4.74;88.60
56894;BME280;43392;50.078;13.704;2024-02-28T04:00:39;96997.84;;;4.75;88.46
56894;BME280;43392;50.078;13.704;2024-02-28T04:03:05;96994.13;;;4.76;88.35
56894;BME280;43392;50.078;13.704;2024-02-28T04:05:33;96993.09;;;4.77;88.30
56894;BME280;43392;50.078;13.704;2024-02-28T04:08:00;97001.88;;;4.77;88.30
56894;BME280;43392;50.078;13.704;2024-02-28T04:10:26;96987.22;;;4.75;88.27
56894;BME280;43392;50.078;13.704;2024-02-28T04:12:53;96998.72;;;4.80;88.55
56894;BME280;43392;50.078;13.704;2024-02-28T04:15:20;96998.50;;;4.82;88.51
56894;BME280;43392;50.078;13.704;2024-02-28T04:17:46;96993.41;;;4.80;88.28
56894;BME280;43392;50.078;13.704;2024-02-28T04:20:13;96999.38;;;4.87;88.53
56894;BME280;43392;50.078;13.704;2024-02-28T04:22:41;97005.03;;;4.91;87.96
56894;BME280;43392;50.078;13.704;2024-02-28T04:25:08;97006.31;;;4.88;88.15
56894;BME280;43392;50.078;13.704;2024-02-28T04:27:35;97010.00;;;4.87;88.09
56894;BME280;43392;50.078;13.704;2024-02-28T04:30:03;97015.56;;;4.86;87.95
56894;BME280;43392;50.078;13.704;2024-02-28T04:32:30;97013.16;;;4.84;87.86
56894;BME280;43392;50.078;13.704;2024-02-28T04:34:56;97017.41;;;4.85;87.93
56894;BME280;43392;50.078;13.704;2024-02-28T04:37:23;97022.25;;;4.88;87.83
56894;BME280;43392;50.078;13.704;2024-02-28T04:39:51;97025.25;;;4.92;87.99
56894;BME280;43392;50.078;13.704;2024-02-28T04:42:17;97026.88;;;4.93;88.07
56894;BME280;43392;50.078;13.704;2024-02-28T04:44:44;97031.38;;;4.92;87.88
56894;BME280;43392;50.078;13.704;2024-02-28T04:47:10;97034.03;;;4.92;87.67
56894;BME280;43392;50.078;13.704;2024-02-28T04:49:37;97037.75;;;4.91;87.80
56894;BME280;43392;50.078;13.704;2024-02-28T04:52:05;97037.75;;;4.91;87.74
56894;BME280;43392;50.078;13.704;2024-02-28T04:54:32;97038.06;;;4.95;87.77
56894;BME280;43392;50.078;13.704;2024-02-28T04:56:59;97039.22;;;4.99;87.67
56894;BME280;43392;50.078;13.704;2024-02-28T04:59:25;97031.00;;;5.00;87.80
56894;BME280;43392;50.078;13.704;2024-02-28T05:01:52;97030.53;;;5.03;87.64
56894;BME280;43392;50.078;13.704;2024-02-28T05:04:18;97033.50;;;5.07;87.40
56894;BME280;43392;50.078;13.704;2024-02-28T05:06:46;97022.56;;;5.03;87.58
56894;BME280;43392;50.078;13.704;2024-02-28T05:09:12;97023.03;;;5.00;87.52
56894;BME280;43392;50.078;13.704;2024-02-28T05:11:39;97031.25;;;4.99;87.62
56894;BME280;43392;50.078;13.704;2024-02-28T05:14:09;97033.00;;;4.93;87.44
56894;BME280;43392;50.078;13.704;2024-02-28T05:16:36;97038.22;;;4.88;87.76
56894;BME280;43392;50.078;13.704;2024-02-28T05:19:02;97033.59;;;4.84;88.00
56894;BME280;43392;50.078;13.704;2024-02-28T05:21:29;97043.41;;;4.83;88.18
56894;BME280;43392;50.078;13.704;2024-02-28T05:23:56;97044.81;;;4.86;87.98
56894;BME280;43392;50.078;13.704;2024-02-28T05:26:23;97050.81;;;4.81;88.14
56894;BME280;43392;50.078;13.704;2024-02-28T05:28:50;97048.72;;;4.83;88.08
56894;BME280;43392;50.078;13.704;2024-02-28T05:31:22;97042.84;;;4.81;87.90
56894;BME280;43392;50.078;13.704;2024-02-28T05:33:50;97047.59;;;4.79;88.03
56894;BME280;43392;50.078;13.704;2024-02-28T05:36:18;97050.47;;;4.78;88.08
56894;BME280;43392;50.078;13.704;2024-02-28T05:38:44;97066.19;;;4.79;88.06
56894;BME280;43392;50.078;13.704;2024-02-28T05:41:11;97066.19;;;4.79;88.05
56894;BME280;43392;50.078;13.704;2024-02-28T05:43:38;97070.25;;;4.82;88.08
56894;BME280;43392;50.078;13.704;2024-02-28T05:46:04;97076.34;;;4.82;87.95
56894;BME280;43392;50.078;13.704;2024-02-28T05:48:32;97073.69;;;4.82;88.14
56894;BME280;43392;50.078;13.704;2024-02-28T05:51:00;97070.59;;;5.02;88.84
56894;BME280;43392;50.078;13.704;2024-02-28T05:53:28;97073.81;;;5.04;88.21
56894;BME280;43392;50.078;13.704;2024-02-28T05:55:57;97082.03;;;5.02;87.91
56894;BME280;43392;50.078;13.704;2024-02-28T05:58:24;97077.78;;;5.01;87.73
56894;BME280;43392;50.078;13.704;2024-02-28T06:00:51;97081.81;;;5.04;87.79
56894;BME280;43392;50.078;13.704;2024-02-28T06:03:17;97075.69;;;5.03;87.44
56894;BME280;43392;50.078;13.704;2024-02-28T06:05:46;97080.78;;;5.05;87.63
56894;BME280;43392;50.078;13.704;2024-02-28T06:08:14;97084.81;;;5.07;87.39
56894;BME280;43392;50.078;13.704;2024-02-28T06:10:40;97088.03;;;5.09;87.23
56894;BME280;43392;50.078;13.704;2024-02-28T06:13:08;97097.63;;;5.10;87.09
56894;BME280;43392;50.078;13.704;2024-02-28T06:15:35;97096.56;;;5.11;86.85
56894;BME280;43392;50.078;13.704;2024-02-28T06:18:01;97106.63;;;5.09;86.67
56894;BME280;43392;50.078;13.704;2024-02-28T06:20:28;97100.75;;;5.07;86.75
56894;BME280;43392;50.078;13.704;2024-02-28T06:22:56;97103.41;;;5.07;86.43
56894;BME280;43392;50.078;13.704;2024-02-28T06:25:23;97115.66;;;5.08;86.38
56894;BME280;43392;50.078;13.704;2024-02-28T06:27:50;97113.78;;;5.09;86.25
56894;BME280;43392;50.078;13.704;2024-02-28T06:30:17;97119.09;;;5.09;86.31
56894;BME280;43392;50.078;13.704;2024-02-28T06:32:43;97102.38;;;5.08;86.25
56894;BME280;43392;50.078;13.704;2024-02-28T06:35:10;97110.44;;;5.13;86.12
56894;BME280;43392;50.078;13.704;2024-02-28T06:37:37;97114.69;;;5.14;85.80
56894;BME280;43392;50.078;13.704;2024-02-28T06:40:06;97108.00;;;5.12;85.84
56894;BME280;43392;50.078;13.704;2024-02-28T06:42:34;97107.09;;;5.06;86.09
56894;BME280;43392;50.078;13.704;2024-02-28T06:45:02;97110.09;;;5.10;85.86
56894;BME280;43392;50.078;13.704;2024-02-28T06:47:29;97111.47;;;5.12;85.83
56894;BME280;43392;50.078;13.704;2024-02-28T06:49:55;97111.59;;;5.17;85.41
56894;BME280;43392;50.078;13.704;2024-02-28T06:52:22;97096.44;;;5.18;85.51
56894;BME280;43392;50.078;13.704;2024-02-28T06:54:49;97108.22;;;5.22;85.72
56894;BME280;43392;50.078;13.704;2024-02-28T06:57:18;97118.13;;;5.26;85.53
56894;BME280;43392;50.078;13.704;2024-02-28T06:59:45;97128.28;;;5.29;85.41
56894;BME280;43392;50.078;13.704;2024-02-28T07:02:11;97123.06;;;5.34;85.38
56894;BME280;43392;50.078;13.704;2024-02-28T07:04:38;97125.72;;;5.34;85.27
56894;BME280;43392;50.078;13.704;2024-02-28T07:07:06;97121.22;;;5.35;85.18
56894;BME280;43392;50.078;13.704;2024-02-28T07:09:32;97114.63;;;5.38;85.31
56894;BME280;43392;50.078;13.704;2024-02-28T07:11:59;97117.84;;;5.40;85.08
56894;BME280;43392;50.078;13.704;2024-02-28T07:14:28;97126.03;;;5.38;84.90
56894;BME280;43392;50.078;13.704;2024-02-28T07:16:55;97125.81;;;5.40;84.95
56894;BME280;43392;50.078;13.704;2024-02-28T07:19:21;97127.66;;;5.39;85.04
56894;BME280;43392;50.078;13.704;2024-02-28T07:21:48;97133.81;;;5.40;84.65
56894;BME280;43392;50.078;13.704;2024-02-28T07:24:14;97133.81;;;5.40;84.91
56894;BME280;43392;50.078;13.704;2024-02-28T07:26:41;97133.00;;;5.39;84.70
56894;BME280;43392;50.078;13.704;2024-02-28T07:29:07;97136.94;;;5.36;84.52
56894;BME280;43392;50.078;13.704;2024-02-28T07:31:35;97149.66;;;5.34;84.43
56894;BME280;43392;50.078;13.704;2024-02-28T07:34:02;97148.28;;;5.32;84.50
56894;BME280;43392;50.078;13.704;2024-02-28T07:36:30;97143.13;;;5.25;84.73
56894;BME280;43392;50.078;13.704;2024-02-28T07:38:56;97147.16;;;5.28;84.48
56894;BME280;43392;50.078;13.704;2024-02-28T07:41:23;97156.41;;;5.25;84.73
56894;BME280;43392;50.078;13.704;2024-02-28T07:43:49;97159.75;;;5.21;84.79
56894;BME280;43392;50.078;13.704;2024-02-28T07:46:16;97161.94;;;5.24;85.08
56894;BME280;43392;50.078;13.704;2024-02-28T07:48:44;97172.94;;;5.27;84.98
56894;BME280;43392;50.078;13.704;2024-02-28T07:51:10;97185.50;;;5.32;84.52
56894;BME280;43392;50.078;13.704;2024-02-28T07:53:37;97182.38;;;5.35;84.67
56894;BME280;43392;50.078;13.704;2024-02-28T07:56:03;97177.94;;;5.41;84.65
56894;BME280;43392;50.078;13.704;2024-02-28T07:58:30;97187.09;;;5.45;84.27
56894;BME280;43392;50.078;13.704;2024-02-28T08:00:56;97176.53;;;5.50;84.03
56894;BME280;43392;50.078;13.704;2024-02-28T08:03:23;97183.00;;;5.54;84.01
56894;BME280;43392;50.078;13.704;2024-02-28T08:05:51;97186.06;;;5.62;83.88
56894;BME280;43392;50.078;13.704;2024-02-28T08:08:17;97181.66;;;5.68;83.56
56894;BME280;43392;50.078;13.704;2024-02-28T08:10:44;97190.28;;;5.75;83.55
56894;BME280;43392;50.078;13.704;2024-02-28T08:13:12;97193.50;;;5.77;83.05
56894;BME280;43392;50.078;13.704;2024-02-28T08:15:38;97200.47;;;5.78;83.05
56894;BME280;43392;50.078;13.704;2024-02-28T08:18:05;97200.56;;;5.83;83.01
56894;BME280;43392;50.078;13.704;2024-02-28T08:20:31;97204.25;;;5.82;82.69
56894;BME280;43392;50.078;13.704;2024-02-28T08:22:59;97202.41;;;5.82;82.77
56894;BME280;43392;50.078;13.704;2024-02-28T08:25:26;97201.16;;;5.85;82.74
56894;BME280;43392;50.078;13.704;2024-02-28T08:27:52;97210.25;;;5.89;82.50
56894;BME280;43392;50.078;13.704;2024-02-28T08:30:19;97210.91;;;5.96;82.38
56894;BME280;43392;50.078;13.704;2024-02-28T08:32:46;97212.63;;;6.02;82.31
56894;BME280;43392;50.078;13.704;2024-02-28T08:35:13;97212.72;;;6.07;81.96
56894;BME280;43392;50.078;13.704;2024-02-28T08:37:39;97220.72;;;6.07;81.84
56894;BME280;43392;50.078;13.704;2024-02-28T08:40:08;97216.84;;;5.98;81.77
56894;BME280;43392;50.078;13.704;2024-02-28T08:42:35;97200.56;;;5.83;81.87
56894;BME280;43392;50.078;13.704;2024-02-28T08:45:01;97210.03;;;5.79;81.82
56894;BME280;43392;50.078;13.704;2024-02-28T08:47:28;97220.13;;;5.77;82.05
56894;BME280;43392;50.078;13.704;2024-02-28T08:49:55;97214.03;;;5.76;82.05
56894;BME280;43392;50.078;13.704;2024-02-28T08:52:22;97219.66;;;5.80;81.72
56894;BME280;43392;50.078;13.704;2024-02-28T08:54:48;97218.50;;;5.87;81.93
56894;BME280;43392;50.078;13.704;2024-02-28T08:57:16;97231.34;;;5.90;81.48
56894;BME280;43392;50.078;13.704;2024-02-28T08:59:43;97233.50;;;5.93;81.81
56894;BME280;43392;50.078;13.704;2024-02-28T09:02:09;97239.25;;;6.02;81.80
56894;BME280;43392;50.078;13.704;2024-02-28T09:04:36;97241.75;;;6.09;81.83
56894;BME280;43392;50.078;13.704;2024-02-28T09:07:03;97238.72;;;6.17;81.85
56894;BME280;43392;50.078;13.704;2024-02-28T09:09:30;97234.03;;;6.24;81.47
56894;BME280;43392;50.078;13.704;2024-02-28T09:11:59;97247.69;;;6.27;81.38
56894;BME280;43392;50.078;13.704;2024-02-28T09:14:29;97242.28;;;6.22;81.08
56894;BME280;43392;50.078;13.704;2024-02-28T09:16:56;97244.28;;;6.15;81.06
56894;BME280;43392;50.078;13.704;2024-02-28T09:19:28;97247.66;;;6.11;81.39
56894;BME280;43392;50.078;13.704;2024-02-28T09:21:55;97249.63;;;6.15;81.22
56894;BME280;43392;50.078;13.704;2024-02-28T09:24:22;97247.00;;;6.20;81.26
56894;BME280;43392;50.078;13.704;2024-02-28T09:26:49;97248.47;;;6.28;80.96
56894;BME280;43392;50.078;13.704;2024-02-28T09:29:15;97240.56;;;6.33;80.70
56894;BME280;43392;50.078;13.704;2024-02-28T09:31:43;97249.22;;;6.40;80.23
56894;BME280;43392;50.078;13.704;2024-02-28T09:34:10;97241.94;;;6.52;79.96
56894;BME280;43392;50.078;13.704;2024-02-28T09:36:40;97242.66;;;6.64;79.60
56894;BME280;43392;50.078;13.704;2024-02-28T09:39:07;97252.66;;;6.74;79.04
56894;BME280;43392;50.078;13.704;2024-02-28T09:41:34;97248.97;;;6.75;78.58
56894;BME280;43392;50.078;13.704;2024-02-28T09:44:02;97254.31;;;6.75;78.62
56894;BME280;43392;50.078;13.704;2024-02-28T09:46:30;97253.91;;;6.83;78.62
56894;BME280;43392;50.078;13.704;2024-02-28T09:49:01;97253.91;;;6.83;78.04
56894;BME280;43392;50.078;13.704;2024-02-28T09:51:30;97254.75;;;6.88;78.50
56894;BME280;43392;50.078;13.704;2024-02-28T09:53:56;97256.69;;;6.93;78.23
56894;BME280;43392;50.078;13.704;2024-02-28T09:56:26;97268.97;;;6.94;77.95
56894;BME280;43392;50.078;13.704;2024-02-28T09:58:54;97258.56;;;6.92;77.99
56894;BME280;43392;50.078;13.704;2024-02-28T10:01:21;97266.72;;;6.86;78.19
56894;BME280;43392;50.078;13.704;2024-02-28T10:03:50;97273.34;;;6.83;77.98
56894;BME280;43392;50.078;13.704;2024-02-28T10:06:18;97268.81;;;6.84;78.31
56894;BME280;43392;50.078;13.704;2024-02-28T10:08:45;97272.63;;;6.88;78.39
56894;BME280;43392;50.078;13.704;2024-02-28T10:11:17;97276.50;;;6.97;78.28
56894;BME280;43392;50.078;13.704;2024-02-28T10:13:44;97279.97;;;6.97;77.95
56894;BME280;43392;50.078;13.704;2024-02-28T10:16:10;97282.06;;;6.95;77.88
56894;BME280;43392;50.078;13.704;2024-02-28T10:18:37;97282.56;;;6.92;77.80
56894;BME280;43392;50.078;13.704;2024-02-28T10:21:04;97286.81;;;6.93;78.08
56894;BME280;43392;50.078;13.704;2024-02-28T10:23:32;97281.75;;;6.92;77.89
56894;BME280;43392;50.078;13.704;2024-02-28T10:26:00;97275.34;;;6.93;77.58
56894;BME280;43392;50.078;13.704;2024-02-28T10:28:27;97291.41;;;6.98;77.79
56894;BME280;43392;50.078;13.704;2024-02-28T10:30:54;97294.69;;;7.00;77.99
56894;BME280;43392;50.078;13.704;2024-02-28T10:33:20;97295.78;;;7.04;77.84
56894;BME280;43392;50.078;13.704;2024-02-28T10:35:50;97296.34;;;7.06;77.71
56894;BME280;43392;50.078;13.704;2024-02-28T10:38:17;97292.88;;;7.05;77.91
56894;BME280;43392;50.078;13.704;2024-02-28T10:40:47;97289.91;;;7.02;77.87
56894;BME280;43392;50.078;13.704;2024-02-28T10:43:16;97291.28;;;7.04;78.30
56894;BME280;43392;50.078;13.704;2024-02-28T10:45:43;97298.19;;;7.05;78.01
56894;BME280;43392;50.078;13.704;2024-02-28T10:48:11;97298.47;;;7.04;77.95
56894;BME280;43392;50.078;13.704;2024-02-28T10:50:37;97301.13;;;7.04;77.85
56894;BME280;43392;50.078;13.704;2024-02-28T10:53:04;97302.72;;;7.05;77.56
56894;BME280;43392;50.078;13.704;2024-02-28T10:55:33;97290.59;;;7.14;77.66
56894;BME280;43392;50.078;13.704;2024-02-28T10:58:06;97301.44;;;7.24;76.94
56894;BME280;43392;50.078;13.704;2024-02-28T11:00:34;97293.78;;;7.32;76.70
56894;BME280;43392;50.078;13.704;2024-02-28T11:03:01;97298.94;;;7.39;76.75
56894;BME280;43392;50.078;13.704;2024-02-28T11:05:35;97294.22;;;7.46;76.29
56894;BME280;43392;50.078;13.704;2024-02-28T11:08:04;97300.72;;;7.50;76.11
56894;BME280;43392;50.078;13.704;2024-02-28T11:10:31;97308.38;;;7.47;76.26
56894;BME280;43392;50.078;13.704;2024-02-28T11:12:59;97307.75;;;7.40;76.13
56894;BME280;43392;50.078;13.704;2024-02-28T11:15:27;97300.63;;;7.45;76.27
56894;BME280;43392;50.078;13.704;2024-02-28T11:17:54;97307.34;;;7.48;76.14
56894;BME280;43392;50.078;13.704;2024-02-28T11:20:20;97299.91;;;7.50;76.01
56894;BME280;43392;50.078;13.704;2024-02-28T11:22:48;97302.31;;;7.51;76.19
56894;BME280;43392;50.078;13.704;2024-02-28T11:25:15;97299.41;;;7.53;76.13
56894;BME280;43392;50.078;13.704;2024-02-28T11:27:46;97300.78;;;7.55;76.03
56894;BME280;43392;50.078;13.704;2024-02-28T11:30:13;97302.38;;;7.56;75.91
56894;BME280;43392;50.078;13.704;2024-02-28T11:32:41;97303.44;;;7.55;76.33
56894;BME280;43392;50.078;13.704;2024-02-28T11:35:09;97304.22;;;7.56;76.10
56894;BME280;43392;50.078;13.704;2024-02-28T11:37:37;97313.66;;;7.63;76.16
56894;BME280;43392;50.078;13.704;2024-02-28T11:40:07;97309.41;;;7.62;76.03
56894;BME280;43392;50.078;13.704;2024-02-28T11:42:34;97315.56;;;7.63;75.88
56894;BME280;43392;50.078;13.704;2024-02-28T11:45:00;97319.06;;;7.68;76.03
56894;BME280;43392;50.078;13.704;2024-02-28T11:47:31;97318.03;;;7.69;75.91
56894;BME280;43392;50.078;13.704;2024-02-28T11:49:59;97325.84;;;7.76;75.73
56894;BME280;43392;50.078;13.704;2024-02-28T11:52:27;97329.06;;;7.78;75.60
56894;BME280;43392;50.078;13.704;2024-02-28T11:54:53;97336.03;;;7.79;75.67
56894;BME280;43392;50.078;13.704;2024-02-28T11:57:20;97326.47;;;7.83;75.70
56894;BME280;43392;50.078;13.704;2024-02-28T11:59:47;97329.41;;;7.81;75.54
56894;BME280;43392;50.078;13.704;2024-02-28T12:02:15;97321.88;;;7.78;75.63
56894;BME280;43392;50.078;13.704;2024-02-28T12:04:42;97322.25;;;7.87;75.66
56894;BME280;43392;50.078;13.704;2024-02-28T12:07:10;97326.31;;;7.94;75.13
56894;BME280;43392;50.078;13.704;2024-02-28T12:09:37;97315.97;;;7.98;74.98
56894;BME280;43392;50.078;13.704;2024-02-28T12:12:06;97318.97;;;8.01;74.89
56894;BME280;43392;50.078;13.704;2024-02-28T12:14:36;97322.41;;;8.02;74.59
56894;BME280;43392;50.078;13.704;2024-02-28T12:17:03;97330.19;;;8.03;74.66
56894;BME280;43392;50.078;13.704;2024-02-28T12:19:30;97327.53;;;8.03;74.85
56894;BME280;43392;50.078;13.704;2024-02-28T12:21:57;97319.75;;;8.02;74.56
56894;BME280;43392;50.078;13.704;2024-02-28T12:24:25;97324.03;;;8.03;74.80
56894;BME280;43392;50.078;13.704;2024-02-28T12:26:52;97325.34;;;8.00;74.69
56894;BME280;43392;50.078;13.704;2024-02-28T12:29:18;97333.84;;;7.97;74.81
56894;BME280;43392;50.078;13.704;2024-02-28T12:31:45;97334.97;;;8.01;75.00
56894;BME280;43392;50.078;13.704;2024-02-28T12:34:11;97341.69;;;8.04;75.09
56894;BME280;43392;50.078;13.704;2024-02-28T12:36:40;97339.03;;;8.04;74.84
56894;BME280;43392;50.078;13.704;2024-02-28T12:39:06;97334.16;;;8.01;75.00
56894;BME280;43392;50.078;13.704;2024-02-28T12:41:38;97334.16;;;8.01;74.76
56894;BME280;43392;50.078;13.704;2024-02-28T12:44:04;97338.38;;;7.97;75.01
56894;BME280;43392;50.078;13.704;2024-02-28T12:46:31;97338.38;;;7.97;74.87
56894;BME280;43392;50.078;13.704;2024-02-28T12:48:58;97337.06;;;7.99;75.09
56894;BME280;43392;50.078;13.704;2024-02-28T12:51:37;97336.09;;;8.06;75.11
56894;BME280;43392;50.078;13.704;2024-02-28T12:54:04;97331.63;;;8.11;74.56
56894;BME280;43392;50.078;13.704;2024-02-28T12:56:30;97339.44;;;8.18;74.53
56894;BME280;43392;50.078;13.704;2024-02-28T12:58:58;97337.63;;;8.23;74.30